Mammoth Cave National Park, KY

10:57 AM CDT op 28 mei 2015 (GMT -0500)
Ridgeview Drive | | Change Station
CLOSE
Current Station
Persoonlijk weerstation
Location: Bowling Green, KY
Geometrische hoogte: 650 ft
Nabije weerstations

Hoogte 650 ft 36.99 °N, 86.52 °W | Updated 2 seconds ago

Gedeeltelijk bewolkt
Gedeeltelijk bewolkt
74.7 °F
Voelt als 75 °F
N
0.0
Wind Variabel Wind van west
Gusts 0.0 mijl/u

Vandaag
Hoog -- | Laag -- °F
--% Kans op neerslag
Gisteren
Hoog -- | Laag -- °F
Precip. -- inches
5:29 AM 7:57 PM
Wassende maan, 76% visible
Druk 30.20 inches
Zicht 10.0 mijlen
Wolken Gering 2100 ft
Warmteindex 75 °F
Dauwpunt 69 °F
Vochtigheid 83%
Neerslag 0.00 inches
Dikte sneeuw Niet beschikbaar.
UV 9 van de 12
Pollen 7.10 van de 12
Luchtkwaliteit Niet beschikbaar.
Flu Activity Sporadic
METAR KBWG 281553Z AUTO 13004KT 10SM FEW021 26/19 A3021 RMK AO2 SLP226 T02560189

More Conditions Fewer Conditions

Druk 30.20 inches
Zicht 10.0 mijlen
Wolken Gering 2100 ft
Warmteindex 75 °F
Dauwpunt 69 °F
Vochtigheid 83%
Neerslag 0.00 inches
Dikte sneeuw Niet beschikbaar.
UV 9 van de 12
Pollen 7.10 van de 12
Luchtkwaliteit Niet beschikbaar.
Flu Activity Sporadic
METAR KBWG 281553Z AUTO 13004KT 10SM FEW021 26/19 A3021 RMK AO2 SLP226 T02560189

More Conditions Fewer Conditions

10-Day Weather Forecast

Almanac

Astronomie

May. 28, 2015 Opkomst Ondergang
Werkelijke tijd
Burgerlijke schemering
Nautische schemering
Astronomische schemering
Maan
Golflengte van het zichtbare licht
Daglengte
Tomorrow will be .
, % of the Moon is Illuminated

Extremen vandaag

State Highs State Lows

Community

WunderPhotos

Upload Photos

1,824,999 foto’s ge-upload!

WunderBlogs® & News

Nearby

Luchtkwaliteit

  Luchtkwaliteit LK-index Verontreinigende stof
Not available.

Dikte sneeuw

Station Depth Geometrische hoogte

Aardbevingen

Stad Distance Mag. Time & Date
Minimum magnitude displayed is 2.5.

Watertemperatuur langs de kust

Plaats Temperatuur

Stations

Nabije weerstations

Locatie station Temp. Gevoelstemperatuur Dauwpunt Vochtigheid Wind Precip. Hoogte Geactualiseerd Type